Time;durP1;ratioP1;P1;durP2;ratioP2;P2;SDS_P1;SDS_P2;PMS_P1;PMS_P2;Temp;Humidity;BMP_temperature;BMP_pressure;BME280_temperature;BME280_humidity;BME280_pressure;Samples;Min_cycle;Max_cycle;Signal;HPM_P1;HPM_P2
2023/04/21 00:02:26;;;;;;;30.83;18.30;;;;;;;;;;5089403;27;20460;-74
2023/04/21 00:04:52;;;;;;;28.30;19.30;;;;;;;;;;5088898;27;20411;-74
2023/04/21 00:07:19;;;;;;;31.27;19.67;;;;;;;;;;5085184;27;20040;-73
2023/04/21 00:09:45;;;;;;;26.35;18.90;;;;;;;;;;5082766;27;20077;-74
2023/04/21 00:12:11;;;;;;;28.67;18.75;;;;;;;;;;5087443;27;20079;-74
2023/04/21 00:14:38;;;;;;;30.55;19.63;;;;;;;;;;5073145;27;20039;-74
2023/04/21 00:17:05;;;;;;;27.27;18.85;;;;;;;;;;5089288;27;20046;-74
2023/04/21 00:19:31;;;;;;;30.95;19.35;;;;;;;;;;5066409;28;20851;-74
2023/04/21 00:21:58;;;;;;;32.53;19.15;;;;;;;;;;5084903;27;21775;-74
2023/04/21 00:24:27;;;;;;;29.30;19.45;;;;;;;;;;5086430;27;20067;-73
2023/04/21 00:26:53;;;;;;;31.15;19.52;;;;;;;;;;5088211;27;20343;-73
2023/04/21 00:29:20;;;;;;;33.55;19.58;;;;;;;;;;5084972;27;20048;-73
2023/04/21 00:31:46;;;;;;;31.50;19.45;;;;;;;;;;5087707;27;20047;-74
2023/04/21 00:34:12;;;;;;;29.00;18.65;;;;;;;;;;5085123;27;20104;-74
2023/04/21 00:36:38;;;;;;;33.50;19.25;;;;;;;;;;5089384;27;20051;-74
2023/04/21 00:39:04;;;;;;;32.03;19.85;;;;;;;;;;5084518;27;20510;-74
2023/04/21 00:41:30;;;;;;;28.52;18.35;;;;;;;;;;5088111;27;20043;-73
2023/04/21 00:44:00;;;;;;;31.02;19.73;;;;;;;;;;5086258;27;20050;-74
2023/04/21 00:46:27;;;;;;;33.67;18.88;;;;;;;;;;5087822;27;20050;-74
2023/04/21 00:48:53;;;;;;;34.22;19.80;;;;;;;;;;5086269;27;20228;-74
2023/04/21 00:51:19;;;;;;;30.85;18.48;;;;;;;;;;5088926;27;20214;-74
2023/04/21 00:53:45;;;;;;;33.10;18.45;;;;;;;;;;5092718;27;20322;-74
2023/04/21 00:56:12;;;;;;;37.60;19.10;;;;;;;;;;5087154;27;20059;-74
2023/04/21 00:58:41;;;;;;;30.75;18.80;;;;;;;;;;5088767;28;20075;-74
2023/04/21 01:01:07;;;;;;;28.50;18.27;;;;;;;;;;5088420;27;20438;-74
2023/04/21 01:03:34;;;;;;;28.10;19.02;;;;;;;;;;5090207;27;20048;-74
2023/04/21 01:06:00;;;;;;;28.67;19.23;;;;;;;;;;5091932;27;20078;-79
2023/04/21 01:08:26;;;;;;;26.48;19.88;;;;;;;;;;5068330;28;20494;-79
2023/04/21 01:10:53;;;;;;;30.98;19.08;;;;;;;;;;5089661;27;20047;-78
2023/04/21 01:13:21;;;;;;;32.42;18.77;;;;;;;;;;5094433;27;20047;-78
2023/04/21 01:15:47;;;;;;;30.60;19.67;;;;;;;;;;5091302;27;20074;-78
2023/04/21 01:18:13;;;;;;;36.45;20.55;;;;;;;;;;5088685;27;20109;-78
2023/04/21 01:20:39;;;;;;;29.23;19.70;;;;;;;;;;5092408;27;20036;-78
2023/04/21 01:23:08;;;;;;;31.85;20.58;;;;;;;;;;5092285;27;20048;-79
2023/04/21 01:25:34;;;;;;;27.58;19.45;;;;;;;;;;5072357;27;20924;-79
2023/04/21 01:28:01;;;;;;;26.60;19.52;;;;;;;;;;5090270;27;20059;-79
2023/04/21 01:30:27;;;;;;;33.55;20.60;;;;;;;;;;5072111;27;20043;-79
2023/04/21 01:32:53;;;;;;;28.98;19.33;;;;;;;;;;5089133;27;20069;-79
2023/04/21 01:35:19;;;;;;;32.70;19.00;;;;;;;;;;5087305;27;20430;-79
2023/04/21 01:37:45;;;;;;;31.08;18.90;;;;;;;;;;5089266;28;20039;-79
2023/04/21 01:40:12;;;;;;;29.92;19.48;;;;;;;;;;5087871;27;20035;-79
2023/04/21 01:42:39;;;;;;;30.80;19.92;;;;;;;;;;5086989;27;20035;-79
2023/04/21 01:45:06;;;;;;;29.40;20.83;;;;;;;;;;5070125;28;20062;-79
2023/04/21 01:47:32;;;;;;;31.88;20.48;;;;;;;;;;5093076;27;20044;-79
2023/04/21 01:49:58;;;;;;;32.17;20.70;;;;;;;;;;5100146;28;20055;-80
2023/04/21 01:52:24;;;;;;;37.05;20.17;;;;;;;;;;5099165;27;20039;-79
2023/04/21 01:54:50;;;;;;;31.85;21.95;;;;;;;;;;5084927;27;20039;-79
2023/04/21 01:57:16;;;;;;;40.65;23.65;;;;;;;;;;5088445;27;20141;-79
2023/04/21 01:59:43;;;;;;;36.80;23.85;;;;;;;;;;5092383;27;20126;-79
2023/04/21 02:02:09;;;;;;;34.67;23.10;;;;;;;;;;5085133;27;20060;-78
2023/04/21 02:04:35;;;;;;;38.63;22.98;;;;;;;;;;5095335;27;21943;-79
2023/04/21 02:07:01;;;;;;;48.47;24.42;;;;;;;;;;5105625;27;20096;-79
2023/04/21 02:09:27;;;;;;;34.67;25.45;;;;;;;;;;5101689;27;20138;-79
2023/04/21 02:11:56;;;;;;;35.17;24.08;;;;;;;;;;5095269;27;20048;-79
2023/04/21 02:14:22;;;;;;;38.17;24.17;;;;;;;;;;5091222;27;20058;-79
2023/04/21 02:16:48;;;;;;;39.00;24.25;;;;;;;;;;5090948;27;20059;-79
2023/04/21 02:19:14;;;;;;;36.17;23.73;;;;;;;;;;5084391;27;22129;-79
2023/04/21 02:21:40;;;;;;;34.97;23.42;;;;;;;;;;5085685;27;20031;-79
2023/04/21 02:24:06;;;;;;;37.10;22.63;;;;;;;;;;5082855;27;20796;-79
2023/04/21 02:26:32;;;;;;;33.95;23.48;;;;;;;;;;5080426;27;20125;-79
2023/04/21 02:28:59;;;;;;;34.90;24.90;;;;;;;;;;5080805;27;20050;-77
2023/04/21 02:31:25;;;;;;;33.65;23.52;;;;;;;;;;5081268;27;20576;-78
2023/04/21 02:33:51;;;;;;;31.95;22.17;;;;;;;;;;5086068;27;20082;-78
2023/04/21 02:36:17;;;;;;;31.23;22.77;;;;;;;;;;5084447;27;20078;-78
2023/04/21 02:38:43;;;;;;;32.45;22.73;;;;;;;;;;5082044;27;20043;-78
2023/04/21 02:41:09;;;;;;;33.63;21.67;;;;;;;;;;5094381;27;20039;-78
2023/04/21 02:43:35;;;;;;;32.53;21.63;;;;;;;;;;5076596;27;20062;-79
2023/04/21 02:46:13;;;;;;;30.25;20.42;;;;;;;;;;5099104;27;20043;-78
2023/04/21 02:48:48;;;;;;;29.17;20.15;;;;;;;;;;5071594;27;20311;-74
2023/04/21 02:51:20;;;;;;;28.92;19.27;;;;;;;;;;5084819;27;20050;-78
2023/04/21 02:53:49;;;;;;;29.77;18.92;;;;;;;;;;5100244;27;20157;-74
2023/04/21 02:56:16;;;;;;;32.13;19.65;;;;;;;;;;5083574;27;20139;-74
2023/04/21 02:58:42;;;;;;;34.95;19.23;;;;;;;;;;5070011;27;20232;-73
2023/04/21 03:01:08;;;;;;;32.75;18.30;;;;;;;;;;5082020;27;20070;-74
2023/04/21 03:03:34;;;;;;;28.48;18.02;;;;;;;;;;5077485;27;20054;-74
2023/04/21 03:06:02;;;;;;;30.33;18.10;;;;;;;;;;5064470;27;20047;-75
2023/04/21 03:08:28;;;;;;;28.83;17.48;;;;;;;;;;5079522;27;20158;-74
2023/04/21 03:10:54;;;;;;;25.08;17.13;;;;;;;;;;5083772;27;20114;-74
2023/04/21 03:13:20;;;;;;;34.97;17.55;;;;;;;;;;5083150;27;20082;-74
2023/04/21 03:15:46;;;;;;;35.20;17.70;;;;;;;;;;5084095;27;20051;-74
2023/04/21 03:18:12;;;;;;;25.88;16.95;;;;;;;;;;5068253;27;20126;-74
2023/04/21 03:20:38;;;;;;;28.45;18.10;;;;;;;;;;5084738;27;20039;-74
2023/04/21 03:23:04;;;;;;;25.52;16.73;;;;;;;;;;5080779;27;20182;-74
2023/04/21 03:25:30;;;;;;;27.58;17.60;;;;;;;;;;5068308;27;20081;-74
2023/04/21 03:27:56;;;;;;;33.10;17.60;;;;;;;;;;5082841;27;23357;-74
2023/04/21 03:30:25;;;;;;;25.00;17.40;;;;;;;;;;5083451;27;20044;-74
2023/04/21 03:32:51;;;;;;;25.85;16.33;;;;;;;;;;5084182;27;20104;-74
2023/04/21 03:35:17;;;;;;;27.58;17.63;;;;;;;;;;5081349;27;20047;-74
2023/04/21 03:37:44;;;;;;;27.17;16.83;;;;;;;;;;5084725;27;20652;-72
2023/04/21 03:40:10;;;;;;;27.27;17.08;;;;;;;;;;5082293;27;20101;-73
2023/04/21 03:42:36;;;;;;;23.80;17.13;;;;;;;;;;5084574;27;20123;-72
2023/04/21 03:45:03;;;;;;;25.45;17.65;;;;;;;;;;5071889;27;20057;-72
2023/04/21 03:47:30;;;;;;;31.65;16.92;;;;;;;;;;5081945;27;20062;-74
2023/04/21 03:49:56;;;;;;;26.23;15.85;;;;;;;;;;5082066;27;20528;-74
2023/04/21 03:52:22;;;;;;;27.48;16.27;;;;;;;;;;5078207;27;20814;-73
2023/04/21 03:54:48;;;;;;;24.77;15.75;;;;;;;;;;5085470;27;20096;-75
2023/04/21 03:57:15;;;;;;;26.15;16.50;;;;;;;;;;5083796;27;20044;-74
2023/04/21 03:59:41;;;;;;;28.85;17.02;;;;;;;;;;5089138;27;20236;-74
2023/04/21 04:02:07;;;;;;;25.90;16.67;;;;;;;;;;5073243;27;20398;-74
2023/04/21 04:04:34;;;;;;;26.50;16.65;;;;;;;;;;5083998;27;20040;-75
2023/04/21 04:07:00;;;;;;;27.42;17.65;;;;;;;;;;5087157;27;20073;-74
2023/04/21 04:09:26;;;;;;;25.88;16.42;;;;;;;;;;5082472;27;21688;-74
2023/04/21 04:11:52;;;;;;;30.15;15.73;;;;;;;;;;5069604;27;20043;-74
2023/04/21 04:14:18;;;;;;;26.52;17.02;;;;;;;;;;5086769;27;20039;-74
2023/04/21 04:16:44;;;;;;;33.58;16.55;;;;;;;;;;5072986;27;20047;-75
2023/04/21 04:19:10;;;;;;;25.50;15.40;;;;;;;;;;5083516;27;20049;-74
2023/04/21 04:21:37;;;;;;;28.02;16.38;;;;;;;;;;5066733;27;21251;-74
2023/04/21 04:24:04;;;;;;;28.85;16.42;;;;;;;;;;5078934;27;20040;-72
2023/04/21 04:26:32;;;;;;;27.52;15.45;;;;;;;;;;5083424;27;20046;-72
2023/04/21 04:28:59;;;;;;;25.02;15.88;;;;;;;;;;5083987;27;21624;-72
2023/04/21 04:31:28;;;;;;;22.17;14.88;;;;;;;;;;5080225;27;20082;-73
2023/04/21 04:33:54;;;;;;;26.92;16.67;;;;;;;;;;5082110;27;20124;-73
2023/04/21 04:36:20;;;;;;;21.15;15.40;;;;;;;;;;5063569;27;20047;-73
2023/04/21 04:38:47;;;;;;;23.27;15.95;;;;;;;;;;5079074;27;20040;-74
2023/04/21 04:41:14;;;;;;;31.10;16.45;;;;;;;;;;5057612;28;20051;-74
2023/04/21 04:43:40;;;;;;;22.90;15.63;;;;;;;;;;5079929;27;20096;-74
2023/04/21 04:46:08;;;;;;;24.73;16.23;;;;;;;;;;5082135;27;20179;-74
2023/04/21 04:48:34;;;;;;;25.40;15.80;;;;;;;;;;5092002;27;20081;-74
2023/04/21 04:51:00;;;;;;;30.45;16.58;;;;;;;;;;5080395;27;20087;-72
2023/04/21 04:53:30;;;;;;;24.75;16.52;;;;;;;;;;5078923;27;20044;-73
2023/04/21 04:55:57;;;;;;;31.55;16.05;;;;;;;;;;5081722;27;20035;-73
2023/04/21 04:58:23;;;;;;;24.85;15.70;;;;;;;;;;5083286;27;20396;-75
2023/04/21 05:00:50;;;;;;;26.75;16.33;;;;;;;;;;5083635;27;20123;-73
2023/04/21 05:03:16;;;;;;;23.80;15.93;;;;;;;;;;5080891;27;20052;-74
2023/04/21 05:05:44;;;;;;;26.88;16.25;;;;;;;;;;5086444;27;20071;-73
2023/04/21 05:08:10;;;;;;;28.40;16.17;;;;;;;;;;5087293;27;20039;-73
2023/04/21 05:10:36;;;;;;;26.40;16.88;;;;;;;;;;5086421;27;20062;-73
2023/04/21 05:13:02;;;;;;;28.45;15.95;;;;;;;;;;5085464;28;20067;-73
2023/04/21 05:15:28;;;;;;;29.13;15.75;;;;;;;;;;5069673;27;20043;-74
2023/04/21 05:17:54;;;;;;;29.08;16.48;;;;;;;;;;5085931;27;20042;-74
2023/04/21 05:20:20;;;;;;;24.45;14.88;;;;;;;;;;5085352;27;20106;-74
2023/04/21 05:22:46;;;;;;;26.60;16.20;;;;;;;;;;5086561;27;20058;-74
2023/04/21 05:25:14;;;;;;;22.95;16.20;;;;;;;;;;5088786;27;20497;-73
2023/04/21 05:27:43;;;;;;;29.15;15.48;;;;;;;;;;5089217;27;20039;-73
2023/04/21 05:30:09;;;;;;;25.52;16.38;;;;;;;;;;5064660;27;20092;-74
2023/04/21 05:32:35;;;;;;;28.15;15.60;;;;;;;;;;5067247;27;20078;-74
2023/04/21 05:35:02;;;;;;;25.65;15.85;;;;;;;;;;5092771;27;20126;-74
2023/04/21 05:37:28;;;;;;;19.10;14.65;;;;;;;;;;5100993;27;20474;-74
2023/04/21 05:39:54;;;;;;;22.25;14.20;;;;;;;;;;5077076;27;20053;-74
2023/04/21 05:42:20;;;;;;;20.58;15.23;;;;;;;;;;5090378;27;20044;-74
2023/04/21 05:44:46;;;;;;;27.27;15.95;;;;;;;;;;5090879;27;20173;-74
2023/04/21 05:47:12;;;;;;;20.33;14.60;;;;;;;;;;5089414;27;20036;-74
2023/04/21 05:49:39;;;;;;;24.08;14.95;;;;;;;;;;5091469;27;21839;-74
2023/04/21 05:52:05;;;;;;;23.80;14.77;;;;;;;;;;5091564;27;20062;-73
2023/04/21 05:54:32;;;;;;;29.27;14.98;;;;;;;;;;5090405;27;20044;-74
2023/04/21 05:56:58;;;;;;;25.55;14.23;;;;;;;;;;5091971;27;20043;-74
2023/04/21 05:59:25;;;;;;;23.10;14.48;;;;;;;;;;5094025;27;20043;-74
2023/04/21 06:01:51;;;;;;;25.48;13.77;;;;;;;;;;5092598;27;20055;-74
2023/04/21 06:04:17;;;;;;;27.25;14.70;;;;;;;;;;5089374;27;20642;-74
2023/04/21 06:06:43;;;;;;;25.73;14.68;;;;;;;;;;5083293;27;20044;-74
2023/04/21 06:09:09;;;;;;;27.35;14.50;;;;;;;;;;5091002;27;20637;-74
2023/04/21 06:11:35;;;;;;;20.00;13.25;;;;;;;;;;5092632;27;20036;-74
2023/04/21 06:14:02;;;;;;;25.40;14.02;;;;;;;;;;5088478;27;20044;-74
2023/04/21 06:16:31;;;;;;;22.45;13.07;;;;;;;;;;5091997;27;20059;-74
2023/04/21 06:18:57;;;;;;;24.63;13.55;;;;;;;;;;5078231;27;20137;-74
2023/04/21 06:21:23;;;;;;;19.63;12.63;;;;;;;;;;5092067;27;20127;-77
2023/04/21 06:23:50;;;;;;;21.88;13.10;;;;;;;;;;5090232;27;20028;-79
2023/04/21 06:26:16;;;;;;;28.88;14.57;;;;;;;;;;5095933;27;20065;-79
2023/04/21 06:28:42;;;;;;;29.63;13.07;;;;;;;;;;5102064;27;20040;-77
2023/04/21 06:31:08;;;;;;;22.30;12.82;;;;;;;;;;5080875;27;20070;-79
2023/04/21 06:33:35;;;;;;;20.50;12.48;;;;;;;;;;5099337;27;20056;-79
2023/04/21 06:36:01;;;;;;;28.70;12.02;;;;;;;;;;5072185;27;20039;-78
2023/04/21 06:38:27;;;;;;;20.73;12.73;;;;;;;;;;5099972;27;20138;-78
2023/04/21 06:40:53;;;;;;;29.63;13.52;;;;;;;;;;5087867;27;20039;-78
2023/04/21 06:43:20;;;;;;;21.02;12.35;;;;;;;;;;5092708;27;20098;-78
2023/04/21 06:45:46;;;;;;;23.25;12.40;;;;;;;;;;5097886;27;20120;-78
2023/04/21 06:48:12;;;;;;;19.85;11.90;;;;;;;;;;5074274;27;20499;-77
2023/04/21 06:50:38;;;;;;;21.73;12.43;;;;;;;;;;5097965;27;20053;-79
2023/04/21 06:53:04;;;;;;;27.00;12.77;;;;;;;;;;5097043;27;20050;-78
2023/04/21 06:55:30;;;;;;;19.73;12.23;;;;;;;;;;5094264;27;20126;-72
2023/04/21 06:57:56;;;;;;;21.20;12.70;;;;;;;;;;5084575;27;21973;-72
2023/04/21 07:00:22;;;;;;;23.08;12.18;;;;;;;;;;5090677;27;20242;-73
2023/04/21 07:02:48;;;;;;;20.58;11.40;;;;;;;;;;5086610;27;20170;-73
2023/04/21 07:05:14;;;;;;;18.65;11.43;;;;;;;;;;5085809;27;20108;-73
2023/04/21 07:07:40;;;;;;;22.02;11.82;;;;;;;;;;5070282;27;20035;-73
2023/04/21 07:10:07;;;;;;;23.10;11.23;;;;;;;;;;5087475;27;22217;-73
2023/04/21 07:12:33;;;;;;;19.58;10.82;;;;;;;;;;5086832;27;20044;-73
2023/04/21 07:14:59;;;;;;;18.60;10.90;;;;;;;;;;5088204;27;20063;-73
2023/04/21 07:17:25;;;;;;;19.15;10.57;;;;;;;;;;5088517;27;20993;-73
2023/04/21 07:19:51;;;;;;;21.80;11.27;;;;;;;;;;5085380;27;20071;-72
2023/04/21 07:22:17;;;;;;;20.55;10.95;;;;;;;;;;5086598;27;20398;-74
2023/04/21 07:24:43;;;;;;;19.08;10.50;;;;;;;;;;5089926;27;20035;-73
2023/04/21 07:27:09;;;;;;;20.05;11.07;;;;;;;;;;5086638;27;20407;-73
2023/04/21 07:29:36;;;;;;;19.40;10.38;;;;;;;;;;5088037;27;20058;-73
2023/04/21 07:32:02;;;;;;;19.48;11.13;;;;;;;;;;5084628;27;20050;-73
2023/04/21 07:34:28;;;;;;;18.40;9.90;;;;;;;;;;5089343;27;20050;-73
2023/04/21 07:36:55;;;;;;;18.63;10.63;;;;;;;;;;5090381;27;20159;-73
2023/04/21 07:39:21;;;;;;;17.15;10.35;;;;;;;;;;5096890;27;20051;-73
2023/04/21 07:41:47;;;;;;;17.60;10.38;;;;;;;;;;5080438;27;20039;-74
2023/04/21 07:44:13;;;;;;;22.95;10.10;;;;;;;;;;5099952;27;20776;-73
2023/04/21 07:46:40;;;;;;;20.48;9.85;;;;;;;;;;5091575;27;20035;-74
2023/04/21 07:49:06;;;;;;;24.15;9.32;;;;;;;;;;5112641;27;20040;-73
2023/04/21 07:51:32;;;;;;;19.77;10.13;;;;;;;;;;5108576;27;20082;-74
2023/04/21 07:53:58;;;;;;;18.65;9.52;;;;;;;;;;5104433;27;20155;-73
2023/04/21 07:56:24;;;;;;;19.80;9.30;;;;;;;;;;5083334;27;20047;-73
2023/04/21 07:58:50;;;;;;;18.55;10.48;;;;;;;;;;5084299;27;20075;-74
2023/04/21 08:01:16;;;;;;;24.88;10.27;;;;;;;;;;5073862;27;20044;-74
2023/04/21 08:03:43;;;;;;;13.18;9.60;;;;;;;;;;5090115;27;20144;-74
2023/04/21 08:06:09;;;;;;;24.48;10.50;;;;;;;;;;5068126;27;20046;-74
2023/04/21 08:08:35;;;;;;;18.10;8.80;;;;;;;;;;5087598;27;20164;-74
2023/04/21 08:11:01;;;;;;;23.90;9.25;;;;;;;;;;5094775;27;20495;-73
2023/04/21 08:13:28;;;;;;;16.58;9.30;;;;;;;;;;5085651;27;20047;-73
2023/04/21 08:15:54;;;;;;;20.08;10.10;;;;;;;;;;5089424;27;20044;-75
2023/04/21 08:18:22;;;;;;;15.20;9.13;;;;;;;;;;5088754;27;20031;-75
2023/04/21 08:20:48;;;;;;;17.33;9.35;;;;;;;;;;5078434;27;20047;-74
2023/04/21 08:23:14;;;;;;;19.67;10.20;;;;;;;;;;5088131;27;20201;-75
2023/04/21 08:25:40;;;;;;;15.65;9.57;;;;;;;;;;5062821;28;20562;-74
2023/04/21 08:28:07;;;;;;;20.67;9.00;;;;;;;;;;5060299;28;20205;-73
2023/04/21 08:30:33;;;;;;;22.02;9.10;;;;;;;;;;5083794;27;22021;-74
2023/04/21 08:32:59;;;;;;;18.30;8.68;;;;;;;;;;5082568;27;20072;-74
2023/04/21 08:35:25;;;;;;;19.92;8.32;;;;;;;;;;5091039;27;20031;-74
2023/04/21 08:37:51;;;;;;;18.95;8.73;;;;;;;;;;5067637;27;20031;-74
2023/04/21 08:40:17;;;;;;;24.92;8.73;;;;;;;;;;5065318;27;20047;-73
2023/04/21 08:42:44;;;;;;;14.15;8.07;;;;;;;;;;5106159;27;20058;-74
2023/04/21 08:45:10;;;;;;;12.73;7.35;;;;;;;;;;5090320;27;20628;-74
2023/04/21 08:47:38;;;;;;;19.27;7.88;;;;;;;;;;5067490;27;20093;-74
2023/04/21 08:50:05;;;;;;;15.25;8.15;;;;;;;;;;5093712;27;20126;-74
2023/04/21 08:52:31;;;;;;;16.48;7.95;;;;;;;;;;5092395;27;21053;-73
2023/04/21 08:54:57;;;;;;;21.05;8.32;;;;;;;;;;5070244;27;20039;-74
2023/04/21 08:57:24;;;;;;;17.05;7.93;;;;;;;;;;5072854;28;20047;-74
2023/04/21 08:59:50;;;;;;;24.85;8.23;;;;;;;;;;5093325;27;22054;-73
2023/04/21 09:02:19;;;;;;;19.92;8.55;;;;;;;;;;5089772;27;20135;-73
2023/04/21 09:04:46;;;;;;;17.92;9.15;;;;;;;;;;5090548;27;20044;-73
2023/04/21 09:07:29;;;;;;;21.08;8.25;;;;;;;;;;5070642;28;20084;-74
2023/04/21 09:09:56;;;;;;;15.45;8.00;;;;;;;;;;5066925;28;20406;-73
2023/04/21 09:12:22;;;;;;;24.85;9.07;;;;;;;;;;5092064;27;20051;-74
2023/04/21 09:14:48;;;;;;;17.75;7.82;;;;;;;;;;5090350;27;20073;-73
2023/04/21 09:17:15;;;;;;;16.13;8.43;;;;;;;;;;5090563;27;20048;-74
2023/04/21 09:19:41;;;;;;;17.23;7.90;;;;;;;;;;5090609;27;20047;-74
2023/04/21 09:22:07;;;;;;;19.10;8.50;;;;;;;;;;5090591;28;20043;-74
2023/04/21 09:24:33;;;;;;;24.45;7.72;;;;;;;;;;5091655;28;20035;-74
2023/04/21 09:27:02;;;;;;;18.20;8.75;;;;;;;;;;5092379;27;20574;-74
2023/04/21 09:29:28;;;;;;;13.60;6.97;;;;;;;;;;5090759;27;20040;-74
2023/04/21 09:31:54;;;;;;;17.58;8.02;;;;;;;;;;5090618;28;20830;-73
2023/04/21 09:34:24;;;;;;;19.13;7.32;;;;;;;;;;5092427;28;20043;-73
2023/04/21 09:37:00;;;;;;;20.15;8.30;;;;;;;;;;5091352;28;20040;-73
2023/04/21 09:39:28;;;;;;;19.40;8.20;;;;;;;;;;5092267;28;20071;-73
2023/04/21 09:41:54;;;;;;;17.42;7.78;;;;;;;;;;5093499;28;20039;-72
2023/04/21 09:44:20;;;;;;;15.30;6.63;;;;;;;;;;5089232;27;20043;-73
2023/04/21 09:46:51;;;;;;;23.00;6.95;;;;;;;;;;5057102;28;20159;-73
2023/04/21 09:49:17;;;;;;;14.20;6.30;;;;;;;;;;5089959;27;22109;-73
2023/04/21 09:51:43;;;;;;;15.23;7.10;;;;;;;;;;5091092;27;20406;-73
2023/04/21 09:54:15;;;;;;;13.02;7.35;;;;;;;;;;5091698;28;20046;-72
2023/04/21 09:56:43;;;;;;;17.50;7.38;;;;;;;;;;5090639;28;20043;-73
2023/04/21 09:59:11;;;;;;;19.90;7.45;;;;;;;;;;5090029;28;20048;-73
2023/04/21 10:01:37;;;;;;;15.25;7.13;;;;;;;;;;5091335;28;20051;-73
2023/04/21 10:04:04;;;;;;;20.35;6.10;;;;;;;;;;5088329;27;20134;-73
2023/04/21 10:06:30;;;;;;;10.55;5.95;;;;;;;;;;5062319;28;20174;-73
2023/04/21 10:08:57;;;;;;;23.02;7.65;;;;;;;;;;5087653;27;20226;-72
2023/04/21 10:11:23;;;;;;;17.00;6.72;;;;;;;;;;5077614;28;20043;-73
2023/04/21 10:13:49;;;;;;;14.57;6.13;;;;;;;;;;5085827;27;20150;-72
2023/04/21 10:16:16;;;;;;;16.52;6.07;;;;;;;;;;5071107;27;20055;-72
2023/04/21 10:18:43;;;;;;;18.77;7.03;;;;;;;;;;5093488;27;20064;-72
2023/04/21 10:21:10;;;;;;;16.67;6.75;;;;;;;;;;5078165;27;20044;-73
2023/04/21 10:23:46;;;;;;;12.25;6.30;;;;;;;;;;5094282;27;20035;-76
2023/04/21 10:26:21;;;;;;;14.98;6.53;;;;;;;;;;5092207;27;20121;-76
2023/04/21 10:29:01;;;;;;;16.85;7.20;;;;;;;;;;5094592;27;20047;-77
2023/04/21 10:31:30;;;;;;;18.25;7.85;;;;;;;;;;5093725;27;20043;-76
2023/04/21 10:34:08;;;;;;;13.65;7.15;;;;;;;;;;5083194;27;20046;-77
2023/04/21 10:36:34;;;;;;;14.82;6.72;;;;;;;;;;5080234;27;20053;-76
2023/04/21 10:39:02;;;;;;;14.48;6.18;;;;;;;;;;5094761;27;20109;-77
2023/04/21 10:41:32;;;;;;;14.23;6.70;;;;;;;;;;5072319;27;20151;-76
2023/04/21 10:44:17;;;;;;;14.77;6.95;;;;;;;;;;5094474;27;20054;-76
2023/04/21 10:46:47;;;;;;;19.83;7.88;;;;;;;;;;5091666;27;20138;-76
2023/04/21 10:49:25;;;;;;;14.32;6.80;;;;;;;;;;5092168;27;20048;-77
2023/04/21 10:54:27;;;;;;;13.65;6.47;;;;;;;;;;5093462;27;20051;-77
2023/04/21 10:56:55;;;;;;;13.27;5.82;;;;;;;;;;5091451;27;20065;-77
2023/04/21 10:59:22;;;;;;;15.15;5.70;;;;;;;;;;5094664;27;20140;-77
2023/04/21 11:01:48;;;;;;;16.75;6.05;;;;;;;;;;5093966;27;20058;-77
2023/04/21 11:04:18;;;;;;;13.57;6.18;;;;;;;;;;5090781;27;20127;-78
2023/04/21 11:07:05;;;;;;;15.40;7.15;;;;;;;;;;5066350;27;20092;-77
2023/04/21 11:09:31;;;;;;;12.48;6.45;;;;;;;;;;5090352;27;20168;-78
2023/04/21 11:11:58;;;;;;;10.60;6.03;;;;;;;;;;5096373;27;20875;-77
2023/04/21 11:14:24;;;;;;;18.98;5.90;;;;;;;;;;5076657;27;20051;-77
2023/04/21 11:16:50;;;;;;;12.20;5.55;;;;;;;;;;5096027;27;20123;-77
2023/04/21 11:19:17;;;;;;;12.27;5.82;;;;;;;;;;5096142;27;20035;-77
2023/04/21 11:21:43;;;;;;;13.07;6.25;;;;;;;;;;5092394;27;20161;-82
2023/04/21 11:24:09;;;;;;;11.25;6.50;;;;;;;;;;5070183;27;20093;-81
2023/04/21 11:26:41;;;;;;;15.98;7.18;;;;;;;;;;5093569;27;20047;-82
2023/04/21 11:29:10;;;;;;;15.07;6.57;;;;;;;;;;5097020;27;20044;-81
2023/04/21 11:31:37;;;;;;;17.52;6.45;;;;;;;;;;5094215;27;20063;-77
2023/04/21 11:34:05;;;;;;;12.93;5.90;;;;;;;;;;5095581;27;20043;-77
2023/04/21 11:36:42;;;;;;;19.75;6.20;;;;;;;;;;5074093;27;20621;-77
2023/04/21 11:39:10;;;;;;;19.20;6.78;;;;;;;;;;5093533;27;20789;-77
2023/04/21 11:41:39;;;;;;;13.55;6.00;;;;;;;;;;5081354;27;20035;-77
2023/04/21 11:44:05;;;;;;;10.43;5.35;;;;;;;;;;5086605;27;20054;-77
2023/04/21 11:46:32;;;;;;;10.88;6.15;;;;;;;;;;5067494;27;20043;-77
2023/04/21 11:49:00;;;;;;;14.98;6.00;;;;;;;;;;5067752;27;20411;-77
2023/04/21 11:51:27;;;;;;;12.82;6.50;;;;;;;;;;5075294;27;20049;-77
2023/04/21 11:53:53;;;;;;;11.75;6.40;;;;;;;;;;5088937;27;20043;-77
2023/04/21 11:56:22;;;;;;;9.18;5.55;;;;;;;;;;5091354;27;20039;-76
2023/04/21 11:58:51;;;;;;;11.00;5.18;;;;;;;;;;5089733;27;20062;-76
2023/04/21 12:01:18;;;;;;;12.43;5.40;;;;;;;;;;5092613;27;20035;-76
2023/04/21 12:03:51;;;;;;;11.77;5.45;;;;;;;;;;5087975;27;20097;-76
2023/04/21 12:06:21;;;;;;;15.77;5.57;;;;;;;;;;5068356;27;20927;-76
2023/04/21 12:08:47;;;;;;;13.48;5.60;;;;;;;;;;5063756;27;20046;-76
2023/04/21 12:11:16;;;;;;;10.50;5.43;;;;;;;;;;5088583;27;20508;-77
2023/04/21 12:13:42;;;;;;;10.15;6.03;;;;;;;;;;5092304;27;20048;-77
2023/04/21 12:16:08;;;;;;;13.52;5.57;;;;;;;;;;5096512;27;20274;-76
2023/04/21 12:18:35;;;;;;;10.88;5.22;;;;;;;;;;5090091;27;20048;-77
2023/04/21 12:21:02;;;;;;;11.63;5.78;;;;;;;;;;5090013;27;20502;-77
2023/04/21 12:23:28;;;;;;;17.08;6.28;;;;;;;;;;5085875;27;20063;-77
2023/04/21 12:25:54;;;;;;;13.50;5.30;;;;;;;;;;5089250;27;20039;-77
2023/04/21 12:28:20;;;;;;;9.63;5.07;;;;;;;;;;5102819;27;20048;-78
2023/04/21 12:30:46;;;;;;;11.75;5.50;;;;;;;;;;5066953;27;20051;-77
2023/04/21 12:33:13;;;;;;;14.70;5.40;;;;;;;;;;5088780;27;20042;-78
2023/04/21 12:35:39;;;;;;;12.65;5.43;;;;;;;;;;5092927;27;20036;-78
2023/04/21 12:38:05;;;;;;;13.80;5.20;;;;;;;;;;5086272;27;20685;-77
2023/04/21 12:40:31;;;;;;;16.15;5.05;;;;;;;;;;5092002;27;20339;-77
2023/04/21 12:42:57;;;;;;;9.07;4.85;;;;;;;;;;5092966;27;20042;-76
2023/04/21 12:45:23;;;;;;;10.57;4.93;;;;;;;;;;5097158;27;20050;-76
2023/04/21 12:47:50;;;;;;;11.10;4.57;;;;;;;;;;5092479;27;20483;-77
2023/04/21 12:50:16;;;;;;;11.88;4.85;;;;;;;;;;5093112;27;20125;-77
2023/04/21 12:52:42;;;;;;;14.43;4.97;;;;;;;;;;5096294;27;20047;-76
2023/04/21 12:55:08;;;;;;;9.07;4.80;;;;;;;;;;5113572;27;20040;-77
2023/04/21 12:57:34;;;;;;;9.45;4.75;;;;;;;;;;5092368;27;20048;-78
2023/04/21 13:00:00;;;;;;;9.15;4.57;;;;;;;;;;5091159;27;20053;-77
2023/04/21 13:02:29;;;;;;;12.25;4.80;;;;;;;;;;5065118;27;20048;-77
2023/04/21 13:04:55;;;;;;;8.05;5.07;;;;;;;;;;5090488;27;20057;-77
2023/04/21 13:07:25;;;;;;;9.70;4.65;;;;;;;;;;5087682;27;20518;-76
2023/04/21 13:09:51;;;;;;;12.05;5.53;;;;;;;;;;5085637;27;20104;-76
2023/04/21 13:12:17;;;;;;;14.43;6.15;;;;;;;;;;5086606;27;20067;-76
2023/04/21 13:14:43;;;;;;;12.07;4.88;;;;;;;;;;5075902;28;20047;-77
2023/04/21 13:17:10;;;;;;;12.30;4.85;;;;;;;;;;5081240;28;20081;-77
2023/04/21 13:19:36;;;;;;;7.93;4.85;;;;;;;;;;5091257;27;20063;-77
2023/04/21 13:22:02;;;;;;;11.05;5.47;;;;;;;;;;5089068;28;20039;-76
2023/04/21 13:24:29;;;;;;;10.30;5.47;;;;;;;;;;5089244;27;20050;-77
2023/04/21 13:26:56;;;;;;;8.80;5.18;;;;;;;;;;5091217;27;20084;-77
2023/04/21 13:29:22;;;;;;;9.98;5.28;;;;;;;;;;5061870;28;20755;-77
2023/04/21 13:31:48;;;;;;;12.10;4.65;;;;;;;;;;5087893;27;20045;-77
2023/04/21 13:34:14;;;;;;;15.10;5.18;;;;;;;;;;5074788;28;20079;-76
2023/04/21 13:36:40;;;;;;;13.20;5.05;;;;;;;;;;5089587;28;20059;-77
2023/04/21 13:39:10;;;;;;;15.43;4.80;;;;;;;;;;5070447;27;20051;-77
2023/04/21 13:41:36;;;;;;;11.20;5.07;;;;;;;;;;5107447;27;20395;-77
2023/04/21 13:44:03;;;;;;;8.15;4.60;;;;;;;;;;5089578;28;20483;-77
2023/04/21 13:46:29;;;;;;;7.72;4.82;;;;;;;;;;5050191;27;20043;-77
2023/04/21 13:48:55;;;;;;;11.43;5.13;;;;;;;;;;5087468;27;20751;-76
2023/04/21 13:51:21;;;;;;;19.15;5.25;;;;;;;;;;5089405;27;20530;-76
2023/04/21 13:53:47;;;;;;;10.35;5.00;;;;;;;;;;5087602;27;20135;-76
2023/04/21 13:56:14;;;;;;;10.80;5.03;;;;;;;;;;5084892;27;20045;-76
2023/04/21 13:58:40;;;;;;;8.50;5.45;;;;;;;;;;5090042;27;20051;-76
2023/04/21 14:01:06;;;;;;;8.73;5.03;;;;;;;;;;5094237;27;21093;-77
2023/04/21 14:03:33;;;;;;;8.48;5.47;;;;;;;;;;5074540;27;20058;-77
2023/04/21 14:05:59;;;;;;;8.90;4.85;;;;;;;;;;5089859;27;20043;-77
2023/04/21 14:08:25;;;;;;;9.45;5.65;;;;;;;;;;5064504;27;21272;-76
2023/04/21 14:10:51;;;;;;;8.25;5.47;;;;;;;;;;5093338;27;20046;-77
2023/04/21 14:13:17;;;;;;;8.98;5.20;;;;;;;;;;5092031;27;20143;-77
2023/04/21 14:15:43;;;;;;;13.60;5.82;;;;;;;;;;5091610;27;20039;-77
2023/04/21 14:18:09;;;;;;;12.48;5.70;;;;;;;;;;5091569;27;20050;-78
2023/04/21 14:20:35;;;;;;;11.40;6.32;;;;;;;;;;5066210;27;20835;-78
2023/04/21 14:23:01;;;;;;;9.75;5.13;;;;;;;;;;5083519;27;20088;-78
2023/04/21 14:25:27;;;;;;;11.32;5.15;;;;;;;;;;5079650;27;20127;-77